Etusivu
METAR-TAF:

METAR-TAF

Lentoasemat :

Jönköping, Ruotsi

Leveyspiiri: 57-46N, Pituuspiiri: 014-05E, korkeus merenpinnasta: 226 m

Tämänhetkinen sää

Tämä raportti tehtiin 34 minuuttia sitten, kello 23.50 UTC
Tuuli 6 kn idästä
Lämpötila 13°C
Kosteus 62%
Ilmanpaine 1007 hPa
Näkyvyys 10 km tai enemmän
ei pilviä alle 1500 m:ssä eikä cumulonimbus-pilviä

METAR: ESGJ 282350Z 08006KT CAVOK 13/06 Q1007

Aika: 02:24 (00:24 UTC)

Sääennuste

Tämä raportti tehtiin 54 minuuttia sitten, kello 23.30 UTC
Ennuste voimassa 29. päivästä klo 00 UTC - 29. päivään klo 02 UTC
Tuuli 8 kn idästä/koillisesta
Näkyvyys 10 km tai enemmän
ei pilviä alle 1500 m:ssä eikä cumulonimbus-pilviä

TAF: ESGJ 282330Z 2900/2902 06008KT CAVOK

Säähavainnot ja -ennusteet yli 4000 lentoasemalta (METAR- ja TAF-raportit).

Käytössä olevat sääasemat on merkitty karttaan keltaisilla ja punaisilla pisteillä.

Aseta hiiri pisteen päälle nähdäksesi sääaseman nimen.

Klikkaa sitten nähdäksesi säähavainnot ja -ennusteet.

Kartan vaihtaminen: klikkaa mustalla rastilla varustettuja vihreitä pisteitä, niin voit zoomata sisään; viivalla varustettua vihreää pistettä, niin voit zoomata ulos tai vihreitä nuolia, niin pääset viereisille kartoille.


METAR-TAF: